sensor_id;sensor_type;location;lat;lon;timestamp;P1;durP1;ratioP1;P2;durP2;ratioP2
57627;SDS011;43451;49.060;10.616;2023-08-31T00:02:09;2.53;;;2.05;;
57627;SDS011;43451;49.060;10.616;2023-08-31T00:04:34;3.22;;;2.20;;
57627;SDS011;43451;49.060;10.616;2023-08-31T00:07:00;3.13;;;2.00;;
57627;SDS011;43451;49.060;10.616;2023-08-31T00:09:25;2.42;;;2.00;;
57627;SDS011;43451;49.060;10.616;2023-08-31T00:11:51;2.20;;;2.00;;
57627;SDS011;43451;49.060;10.616;2023-08-31T00:14:16;3.58;;;1.90;;
57627;SDS011;43451;49.060;10.616;2023-08-31T00:16:42;2.50;;;1.90;;
57627;SDS011;43451;49.060;10.616;2023-08-31T00:19:11;3.05;;;2.10;;
57627;SDS011;43451;49.060;10.616;2023-08-31T00:21:37;3.13;;;1.90;;
57627;SDS011;43451;49.060;10.616;2023-08-31T00:24:03;2.40;;;1.90;;
57627;SDS011;43451;49.060;10.616;2023-08-31T00:26:29;3.25;;;2.00;;
57627;SDS011;43451;49.060;10.616;2023-08-31T00:28:56;2.70;;;1.63;;
57627;SDS011;43451;49.060;10.616;2023-08-31T00:31:22;2.33;;;1.92;;
57627;SDS011;43451;49.060;10.616;2023-08-31T00:33:48;2.30;;;1.98;;
57627;SDS011;43451;49.060;10.616;2023-08-31T00:36:13;2.40;;;2.05;;
57627;SDS011;43451;49.060;10.616;2023-08-31T00:38:39;4.50;;;1.83;;
57627;SDS011;43451;49.060;10.616;2023-08-31T00:41:05;4.55;;;2.00;;
57627;SDS011;43451;49.060;10.616;2023-08-31T00:43:31;3.40;;;1.80;;
57627;SDS011;43451;49.060;10.616;2023-08-31T00:45:57;2.42;;;2.10;;
57627;SDS011;43451;49.060;10.616;2023-08-31T00:48:23;2.85;;;1.70;;
57627;SDS011;43451;49.060;10.616;2023-08-31T00:50:49;2.90;;;2.10;;
57627;SDS011;43451;49.060;10.616;2023-08-31T00:53:16;2.63;;;2.08;;
57627;SDS011;43451;49.060;10.616;2023-08-31T00:55:44;3.30;;;1.93;;
57627;SDS011;43451;49.060;10.616;2023-08-31T00:58:10;1.95;;;1.77;;
57627;SDS011;43451;49.060;10.616;2023-08-31T01:03:39;3.35;;;1.83;;
57627;SDS011;43451;49.060;10.616;2023-08-31T01:06:27;2.63;;;1.90;;
57627;SDS011;43451;49.060;10.616;2023-08-31T01:09:02;2.08;;;1.73;;
57627;SDS011;43451;49.060;10.616;2023-08-31T01:11:57;2.83;;;2.10;;
57627;SDS011;43451;49.060;10.616;2023-08-31T01:14:32;3.20;;;1.90;;
57627;SDS011;43451;49.060;10.616;2023-08-31T01:17:03;3.83;;;1.95;;
57627;SDS011;43451;49.060;10.616;2023-08-31T01:22:00;3.63;;;2.05;;
57627;SDS011;43451;49.060;10.616;2023-08-31T01:24:29;3.67;;;2.05;;
57627;SDS011;43451;49.060;10.616;2023-08-31T01:26:56;2.50;;;2.08;;
57627;SDS011;43451;49.060;10.616;2023-08-31T01:29:22;2.40;;;2.10;;
57627;SDS011;43451;49.060;10.616;2023-08-31T01:31:48;2.95;;;2.30;;
57627;SDS011;43451;49.060;10.616;2023-08-31T01:34:13;3.25;;;1.98;;
57627;SDS011;43451;49.060;10.616;2023-08-31T01:36:41;2.30;;;2.10;;
57627;SDS011;43451;49.060;10.616;2023-08-31T01:39:30;2.53;;;2.10;;
57627;SDS011;43451;49.060;10.616;2023-08-31T01:42:00;3.15;;;2.00;;
57627;SDS011;43451;49.060;10.616;2023-08-31T01:44:30;2.35;;;2.10;;
57627;SDS011;43451;49.060;10.616;2023-08-31T01:47:04;4.43;;;2.50;;
57627;SDS011;43451;49.060;10.616;2023-08-31T01:49:36;2.58;;;2.20;;
57627;SDS011;43451;49.060;10.616;2023-08-31T01:52:02;3.55;;;2.05;;
57627;SDS011;43451;49.060;10.616;2023-08-31T01:54:28;3.03;;;1.95;;
57627;SDS011;43451;49.060;10.616;2023-08-31T01:56:54;2.35;;;2.05;;
57627;SDS011;43451;49.060;10.616;2023-08-31T01:59:20;2.40;;;1.88;;
57627;SDS011;43451;49.060;10.616;2023-08-31T02:01:45;4.35;;;2.30;;
57627;SDS011;43451;49.060;10.616;2023-08-31T02:04:11;2.20;;;2.00;;
57627;SDS011;43451;49.060;10.616;2023-08-31T02:06:37;5.22;;;2.03;;
57627;SDS011;43451;49.060;10.616;2023-08-31T02:09:02;4.47;;;2.50;;
57627;SDS011;43451;49.060;10.616;2023-08-31T02:11:28;2.30;;;2.10;;
57627;SDS011;43451;49.060;10.616;2023-08-31T02:13:54;4.43;;;2.40;;
57627;SDS011;43451;49.060;10.616;2023-08-31T02:16:19;5.38;;;2.30;;
57627;SDS011;43451;49.060;10.616;2023-08-31T02:18:45;2.50;;;2.30;;
57627;SDS011;43451;49.060;10.616;2023-08-31T02:21:10;3.75;;;2.33;;
57627;SDS011;43451;49.060;10.616;2023-08-31T02:23:36;3.63;;;2.17;;
57627;SDS011;43451;49.060;10.616;2023-08-31T02:26:01;4.05;;;2.20;;
57627;SDS011;43451;49.060;10.616;2023-08-31T02:28:27;3.65;;;2.33;;
57627;SDS011;43451;49.060;10.616;2023-08-31T02:31:00;4.15;;;2.30;;
57627;SDS011;43451;49.060;10.616;2023-08-31T02:33:27;3.38;;;2.40;;
57627;SDS011;43451;49.060;10.616;2023-08-31T02:35:53;4.10;;;2.70;;
57627;SDS011;43451;49.060;10.616;2023-08-31T02:38:20;3.10;;;2.72;;
57627;SDS011;43451;49.060;10.616;2023-08-31T02:40:49;4.70;;;3.17;;
57627;SDS011;43451;49.060;10.616;2023-08-31T02:43:15;3.83;;;2.90;;
57627;SDS011;43451;49.060;10.616;2023-08-31T02:45:40;8.63;;;3.20;;
57627;SDS011;43451;49.060;10.616;2023-08-31T02:48:06;4.03;;;2.92;;
57627;SDS011;43451;49.060;10.616;2023-08-31T02:50:34;5.43;;;3.28;;
57627;SDS011;43451;49.060;10.616;2023-08-31T02:53:00;6.35;;;3.17;;
57627;SDS011;43451;49.060;10.616;2023-08-31T02:55:25;5.93;;;2.80;;
57627;SDS011;43451;49.060;10.616;2023-08-31T02:57:51;4.28;;;2.90;;
57627;SDS011;43451;49.060;10.616;2023-08-31T03:00:17;4.68;;;2.85;;
57627;SDS011;43451;49.060;10.616;2023-08-31T03:02:47;4.07;;;3.22;;
57627;SDS011;43451;49.060;10.616;2023-08-31T03:05:13;3.03;;;2.72;;
57627;SDS011;43451;49.060;10.616;2023-08-31T03:07:38;4.25;;;3.10;;
57627;SDS011;43451;49.060;10.616;2023-08-31T03:10:04;6.25;;;3.20;;
57627;SDS011;43451;49.060;10.616;2023-08-31T03:12:30;3.00;;;2.70;;
57627;SDS011;43451;49.060;10.616;2023-08-31T03:14:55;3.22;;;2.90;;
57627;SDS011;43451;49.060;10.616;2023-08-31T03:17:21;4.57;;;3.10;;
57627;SDS011;43451;49.060;10.616;2023-08-31T03:19:46;3.50;;;3.05;;
57627;SDS011;43451;49.060;10.616;2023-08-31T03:22:12;4.70;;;3.00;;
57627;SDS011;43451;49.060;10.616;2023-08-31T03:24:37;6.40;;;3.20;;
57627;SDS011;43451;49.060;10.616;2023-08-31T03:27:03;4.03;;;3.10;;
57627;SDS011;43451;49.060;10.616;2023-08-31T03:29:29;6.80;;;3.25;;
57627;SDS011;43451;49.060;10.616;2023-08-31T03:31:54;4.78;;;3.10;;
57627;SDS011;43451;49.060;10.616;2023-08-31T03:34:20;5.88;;;3.10;;
57627;SDS011;43451;49.060;10.616;2023-08-31T03:36:46;4.00;;;3.10;;
57627;SDS011;43451;49.060;10.616;2023-08-31T03:39:11;5.15;;;3.25;;
57627;SDS011;43451;49.060;10.616;2023-08-31T03:41:37;3.78;;;3.20;;
57627;SDS011;43451;49.060;10.616;2023-08-31T03:44:02;5.95;;;3.50;;
57627;SDS011;43451;49.060;10.616;2023-08-31T03:46:28;4.28;;;3.30;;
57627;SDS011;43451;49.060;10.616;2023-08-31T03:48:54;3.83;;;3.10;;
57627;SDS011;43451;49.060;10.616;2023-08-31T03:51:19;4.13;;;3.30;;
57627;SDS011;43451;49.060;10.616;2023-08-31T03:53:44;5.88;;;3.88;;
57627;SDS011;43451;49.060;10.616;2023-08-31T03:56:10;6.43;;;3.63;;
57627;SDS011;43451;49.060;10.616;2023-08-31T03:58:36;4.68;;;3.20;;
57627;SDS011;43451;49.060;10.616;2023-08-31T04:01:02;4.93;;;3.45;;
57627;SDS011;43451;49.060;10.616;2023-08-31T04:03:28;5.35;;;3.40;;
57627;SDS011;43451;49.060;10.616;2023-08-31T04:05:56;5.22;;;3.58;;
57627;SDS011;43451;49.060;10.616;2023-08-31T04:08:22;5.10;;;3.58;;
57627;SDS011;43451;49.060;10.616;2023-08-31T04:10:48;4.63;;;3.60;;
57627;SDS011;43451;49.060;10.616;2023-08-31T04:13:13;4.80;;;3.70;;
57627;SDS011;43451;49.060;10.616;2023-08-31T04:15:39;6.80;;;3.80;;
57627;SDS011;43451;49.060;10.616;2023-08-31T04:18:04;6.85;;;3.63;;
57627;SDS011;43451;49.060;10.616;2023-08-31T04:20:30;5.03;;;3.40;;
57627;SDS011;43451;49.060;10.616;2023-08-31T04:22:55;5.53;;;3.63;;
57627;SDS011;43451;49.060;10.616;2023-08-31T04:25:21;6.70;;;3.78;;
57627;SDS011;43451;49.060;10.616;2023-08-31T04:27:47;6.55;;;3.95;;
57627;SDS011;43451;49.060;10.616;2023-08-31T04:30:12;5.28;;;4.18;;
57627;SDS011;43451;49.060;10.616;2023-08-31T04:32:38;8.85;;;3.97;;
57627;SDS011;43451;49.060;10.616;2023-08-31T04:35:04;6.18;;;4.10;;
57627;SDS011;43451;49.060;10.616;2023-08-31T04:37:32;5.13;;;3.83;;
57627;SDS011;43451;49.060;10.616;2023-08-31T04:39:58;5.60;;;3.83;;
57627;SDS011;43451;49.060;10.616;2023-08-31T04:42:24;5.13;;;3.67;;
57627;SDS011;43451;49.060;10.616;2023-08-31T04:44:50;8.20;;;3.78;;
57627;SDS011;43451;49.060;10.616;2023-08-31T04:47:15;5.72;;;3.80;;
57627;SDS011;43451;49.060;10.616;2023-08-31T04:49:41;7.28;;;3.97;;
57627;SDS011;43451;49.060;10.616;2023-08-31T04:52:07;4.82;;;3.50;;
57627;SDS011;43451;49.060;10.616;2023-08-31T04:54:33;9.35;;;3.85;;
57627;SDS011;43451;49.060;10.616;2023-08-31T04:56:59;4.97;;;3.80;;
57627;SDS011;43451;49.060;10.616;2023-08-31T05:02:05;7.45;;;4.20;;
57627;SDS011;43451;49.060;10.616;2023-08-31T05:04:30;7.40;;;4.00;;
57627;SDS011;43451;49.060;10.616;2023-08-31T05:06:56;6.25;;;4.00;;
57627;SDS011;43451;49.060;10.616;2023-08-31T05:09:23;4.88;;;3.70;;
57627;SDS011;43451;49.060;10.616;2023-08-31T05:11:49;7.07;;;4.18;;
57627;SDS011;43451;49.060;10.616;2023-08-31T05:14:15;5.53;;;4.13;;
57627;SDS011;43451;49.060;10.616;2023-08-31T05:16:40;7.35;;;4.00;;
57627;SDS011;43451;49.060;10.616;2023-08-31T05:19:06;6.28;;;4.07;;
57627;SDS011;43451;49.060;10.616;2023-08-31T05:21:32;4.95;;;3.60;;
57627;SDS011;43451;49.060;10.616;2023-08-31T05:23:58;6.07;;;4.10;;
57627;SDS011;43451;49.060;10.616;2023-08-31T05:26:23;5.57;;;3.50;;
57627;SDS011;43451;49.060;10.616;2023-08-31T05:28:49;6.18;;;3.80;;
57627;SDS011;43451;49.060;10.616;2023-08-31T05:31:15;6.28;;;3.63;;
57627;SDS011;43451;49.060;10.616;2023-08-31T05:33:40;6.43;;;3.83;;
57627;SDS011;43451;49.060;10.616;2023-08-31T05:36:06;8.77;;;4.05;;
57627;SDS011;43451;49.060;10.616;2023-08-31T05:38:31;6.85;;;3.58;;
57627;SDS011;43451;49.060;10.616;2023-08-31T05:41:15;6.13;;;3.95;;
57627;SDS011;43451;49.060;10.616;2023-08-31T05:43:41;7.15;;;3.90;;
57627;SDS011;43451;49.060;10.616;2023-08-31T05:46:07;4.93;;;3.90;;
57627;SDS011;43451;49.060;10.616;2023-08-31T05:48:34;5.82;;;4.00;;
57627;SDS011;43451;49.060;10.616;2023-08-31T05:50:59;5.03;;;3.58;;
57627;SDS011;43451;49.060;10.616;2023-08-31T05:53:25;5.93;;;3.55;;
57627;SDS011;43451;49.060;10.616;2023-08-31T05:55:50;5.82;;;3.50;;
57627;SDS011;43451;49.060;10.616;2023-08-31T05:58:16;4.47;;;3.38;;
57627;SDS011;43451;49.060;10.616;2023-08-31T06:00:42;5.88;;;3.60;;
57627;SDS011;43451;49.060;10.616;2023-08-31T06:03:07;4.32;;;2.95;;
57627;SDS011;43451;49.060;10.616;2023-08-31T06:05:32;4.60;;;3.17;;
57627;SDS011;43451;49.060;10.616;2023-08-31T06:07:58;6.78;;;3.20;;
57627;SDS011;43451;49.060;10.616;2023-08-31T06:10:24;8.60;;;2.90;;
57627;SDS011;43451;49.060;10.616;2023-08-31T06:12:50;5.00;;;3.25;;
57627;SDS011;43451;49.060;10.616;2023-08-31T06:15:16;4.90;;;2.97;;
57627;SDS011;43451;49.060;10.616;2023-08-31T06:17:42;4.43;;;3.05;;
57627;SDS011;43451;49.060;10.616;2023-08-31T06:20:07;4.00;;;2.92;;
57627;SDS011;43451;49.060;10.616;2023-08-31T06:22:34;5.18;;;3.10;;
57627;SDS011;43451;49.060;10.616;2023-08-31T06:24:59;6.03;;;3.28;;
57627;SDS011;43451;49.060;10.616;2023-08-31T06:27:25;5.15;;;3.30;;
57627;SDS011;43451;49.060;10.616;2023-08-31T06:29:50;4.90;;;3.17;;
57627;SDS011;43451;49.060;10.616;2023-08-31T06:32:16;4.55;;;3.38;;
57627;SDS011;43451;49.060;10.616;2023-08-31T06:34:42;4.60;;;3.42;;
57627;SDS011;43451;49.060;10.616;2023-08-31T06:37:08;7.72;;;3.10;;
57627;SDS011;43451;49.060;10.616;2023-08-31T06:39:33;5.32;;;3.00;;
57627;SDS011;43451;49.060;10.616;2023-08-31T06:41:59;6.63;;;3.10;;
57627;SDS011;43451;49.060;10.616;2023-08-31T06:44:25;5.63;;;3.10;;
57627;SDS011;43451;49.060;10.616;2023-08-31T06:46:50;4.57;;;3.05;;
57627;SDS011;43451;49.060;10.616;2023-08-31T06:49:16;4.93;;;2.90;;
57627;SDS011;43451;49.060;10.616;2023-08-31T06:51:41;5.32;;;2.85;;
57627;SDS011;43451;49.060;10.616;2023-08-31T06:54:07;5.10;;;2.88;;
57627;SDS011;43451;49.060;10.616;2023-08-31T06:56:33;5.65;;;2.83;;
57627;SDS011;43451;49.060;10.616;2023-08-31T06:58:59;4.88;;;2.83;;
57627;SDS011;43451;49.060;10.616;2023-08-31T07:01:25;4.22;;;2.60;;
57627;SDS011;43451;49.060;10.616;2023-08-31T07:03:51;4.43;;;2.70;;
57627;SDS011;43451;49.060;10.616;2023-08-31T07:06:17;4.03;;;2.60;;
57627;SDS011;43451;49.060;10.616;2023-08-31T07:08:43;5.30;;;2.70;;
57627;SDS011;43451;49.060;10.616;2023-08-31T07:11:10;4.80;;;2.47;;
57627;SDS011;43451;49.060;10.616;2023-08-31T07:13:36;6.10;;;2.53;;
57627;SDS011;43451;49.060;10.616;2023-08-31T07:16:02;3.67;;;2.33;;
57627;SDS011;43451;49.060;10.616;2023-08-31T07:18:28;4.00;;;2.40;;
57627;SDS011;43451;49.060;10.616;2023-08-31T07:20:53;3.97;;;2.70;;
57627;SDS011;43451;49.060;10.616;2023-08-31T07:23:19;5.57;;;2.78;;
57627;SDS011;43451;49.060;10.616;2023-08-31T07:25:45;4.82;;;2.53;;
57627;SDS011;43451;49.060;10.616;2023-08-31T07:28:12;5.15;;;2.22;;
57627;SDS011;43451;49.060;10.616;2023-08-31T07:30:37;5.75;;;2.20;;
57627;SDS011;43451;49.060;10.616;2023-08-31T07:33:03;5.07;;;2.30;;
57627;SDS011;43451;49.060;10.616;2023-08-31T07:35:29;3.30;;;2.40;;
57627;SDS011;43451;49.060;10.616;2023-08-31T07:37:55;3.58;;;2.25;;
57627;SDS011;43451;49.060;10.616;2023-08-31T07:40:21;4.10;;;2.47;;
57627;SDS011;43451;49.060;10.616;2023-08-31T07:42:46;4.53;;;2.40;;
57627;SDS011;43451;49.060;10.616;2023-08-31T07:45:12;4.80;;;2.40;;
57627;SDS011;43451;49.060;10.616;2023-08-31T07:47:38;5.60;;;2.45;;
57627;SDS011;43451;49.060;10.616;2023-08-31T07:50:03;3.78;;;2.20;;
57627;SDS011;43451;49.060;10.616;2023-08-31T07:52:29;3.50;;;1.90;;
57627;SDS011;43451;49.060;10.616;2023-08-31T07:54:54;2.83;;;1.80;;
57627;SDS011;43451;49.060;10.616;2023-08-31T07:57:20;6.13;;;2.05;;
57627;SDS011;43451;49.060;10.616;2023-08-31T07:59:45;25.17;;;5.28;;
57627;SDS011;43451;49.060;10.616;2023-08-31T08:02:11;4.70;;;2.10;;
57627;SDS011;43451;49.060;10.616;2023-08-31T08:04:36;3.00;;;1.92;;
57627;SDS011;43451;49.060;10.616;2023-08-31T08:07:02;9.55;;;2.20;;
57627;SDS011;43451;49.060;10.616;2023-08-31T08:09:28;2.90;;;2.00;;
57627;SDS011;43451;49.060;10.616;2023-08-31T08:11:55;2.78;;;1.85;;
57627;SDS011;43451;49.060;10.616;2023-08-31T08:14:21;2.83;;;1.80;;
57627;SDS011;43451;49.060;10.616;2023-08-31T08:16:46;3.42;;;1.75;;
57627;SDS011;43451;49.060;10.616;2023-08-31T08:19:12;4.20;;;1.67;;
57627;SDS011;43451;49.060;10.616;2023-08-31T08:21:37;5.20;;;1.88;;
57627;SDS011;43451;49.060;10.616;2023-08-31T08:24:03;4.72;;;1.80;;
57627;SDS011;43451;49.060;10.616;2023-08-31T08:26:28;4.97;;;1.80;;
57627;SDS011;43451;49.060;10.616;2023-08-31T08:28:54;5.07;;;1.55;;
57627;SDS011;43451;49.060;10.616;2023-08-31T08:31:19;3.13;;;1.70;;
57627;SDS011;43451;49.060;10.616;2023-08-31T08:33:45;4.63;;;1.80;;
57627;SDS011;43451;49.060;10.616;2023-08-31T08:36:10;5.45;;;1.92;;
57627;SDS011;43451;49.060;10.616;2023-08-31T08:38:36;5.93;;;1.90;;
57627;SDS011;43451;49.060;10.616;2023-08-31T08:41:05;3.70;;;1.50;;
57627;SDS011;43451;49.060;10.616;2023-08-31T08:43:31;4.45;;;1.60;;
57627;SDS011;43451;49.060;10.616;2023-08-31T08:45:58;5.55;;;1.80;;
57627;SDS011;43451;49.060;10.616;2023-08-31T08:48:31;5.93;;;1.80;;
57627;SDS011;43451;49.060;10.616;2023-08-31T08:50:59;4.47;;;1.50;;
57627;SDS011;43451;49.060;10.616;2023-08-31T08:53:25;5.65;;;1.70;;
57627;SDS011;43451;49.060;10.616;2023-08-31T08:55:51;6.13;;;1.92;;
57627;SDS011;43451;49.060;10.616;2023-08-31T08:58:16;4.88;;;1.83;;
57627;SDS011;43451;49.060;10.616;2023-08-31T09:00:42;5.13;;;1.90;;
57627;SDS011;43451;49.060;10.616;2023-08-31T09:03:08;3.53;;;1.50;;
57627;SDS011;43451;49.060;10.616;2023-08-31T09:05:33;6.03;;;1.77;;
57627;SDS011;43451;49.060;10.616;2023-08-31T09:08:00;5.30;;;1.73;;
57627;SDS011;43451;49.060;10.616;2023-08-31T09:10:33;5.75;;;1.80;;
57627;SDS011;43451;49.060;10.616;2023-08-31T09:13:09;4.43;;;1.60;;
57627;SDS011;43451;49.060;10.616;2023-08-31T09:15:39;4.57;;;1.80;;
57627;SDS011;43451;49.060;10.616;2023-08-31T09:18:06;3.45;;;1.70;;
57627;SDS011;43451;49.060;10.616;2023-08-31T09:20:31;2.90;;;1.60;;
57627;SDS011;43451;49.060;10.616;2023-08-31T09:23:08;3.00;;;1.67;;
57627;SDS011;43451;49.060;10.616;2023-08-31T09:25:38;3.88;;;1.58;;
57627;SDS011;43451;49.060;10.616;2023-08-31T09:28:06;3.83;;;1.73;;
57627;SDS011;43451;49.060;10.616;2023-08-31T09:30:35;4.70;;;1.50;;
57627;SDS011;43451;49.060;10.616;2023-08-31T09:33:03;3.35;;;1.50;;
57627;SDS011;43451;49.060;10.616;2023-08-31T09:35:30;2.70;;;1.30;;
57627;SDS011;43451;49.060;10.616;2023-08-31T09:37:56;3.83;;;1.60;;
57627;SDS011;43451;49.060;10.616;2023-08-31T09:40:24;3.85;;;1.70;;
57627;SDS011;43451;49.060;10.616;2023-08-31T09:42:51;2.90;;;1.60;;
57627;SDS011;43451;49.060;10.616;2023-08-31T09:45:17;3.70;;;2.08;;
57627;SDS011;43451;49.060;10.616;2023-08-31T09:48:03;6.87;;;1.90;;
57627;SDS011;43451;49.060;10.616;2023-08-31T09:50:30;3.58;;;1.58;;
57627;SDS011;43451;49.060;10.616;2023-08-31T09:53:04;5.07;;;1.63;;
57627;SDS011;43451;49.060;10.616;2023-08-31T09:55:30;3.30;;;1.55;;
57627;SDS011;43451;49.060;10.616;2023-08-31T09:58:00;3.13;;;1.60;;
57627;SDS011;43451;49.060;10.616;2023-08-31T10:00:27;3.13;;;1.83;;
57627;SDS011;43451;49.060;10.616;2023-08-31T10:05:21;4.13;;;2.10;;
57627;SDS011;43451;49.060;10.616;2023-08-31T10:07:48;4.93;;;1.90;;
57627;SDS011;43451;49.060;10.616;2023-08-31T10:10:14;4.13;;;2.00;;
57627;SDS011;43451;49.060;10.616;2023-08-31T10:12:40;3.53;;;1.90;;
57627;SDS011;43451;49.060;10.616;2023-08-31T10:15:06;3.00;;;1.60;;
57627;SDS011;43451;49.060;10.616;2023-08-31T10:17:32;4.90;;;2.08;;
57627;SDS011;43451;49.060;10.616;2023-08-31T10:19:58;6.05;;;2.00;;
57627;SDS011;43451;49.060;10.616;2023-08-31T10:22:24;4.93;;;2.00;;
57627;SDS011;43451;49.060;10.616;2023-08-31T10:25:03;5.22;;;2.05;;
57627;SDS011;43451;49.060;10.616;2023-08-31T10:27:41;4.55;;;2.17;;
57627;SDS011;43451;49.060;10.616;2023-08-31T10:32:41;4.90;;;1.95;;
57627;SDS011;43451;49.060;10.616;2023-08-31T10:35:10;4.07;;;2.10;;
57627;SDS011;43451;49.060;10.616;2023-08-31T10:37:35;3.58;;;1.90;;
57627;SDS011;43451;49.060;10.616;2023-08-31T10:40:08;3.95;;;1.90;;
57627;SDS011;43451;49.060;10.616;2023-08-31T10:42:46;4.88;;;2.03;;
57627;SDS011;43451;49.060;10.616;2023-08-31T10:45:13;4.55;;;2.10;;
57627;SDS011;43451;49.060;10.616;2023-08-31T10:47:42;4.72;;;1.83;;
57627;SDS011;43451;49.060;10.616;2023-08-31T10:50:19;3.70;;;1.83;;
57627;SDS011;43451;49.060;10.616;2023-08-31T10:52:46;4.03;;;1.83;;
57627;SDS011;43451;49.060;10.616;2023-08-31T10:55:11;3.10;;;1.95;;
57627;SDS011;43451;49.060;10.616;2023-08-31T10:57:37;6.75;;;1.88;;
57627;SDS011;43451;49.060;10.616;2023-08-31T11:00:04;18.10;;;2.35;;
57627;SDS011;43451;49.060;10.616;2023-08-31T11:02:32;4.55;;;1.90;;
57627;SDS011;43451;49.060;10.616;2023-08-31T11:07:41;4.00;;;1.90;;
57627;SDS011;43451;49.060;10.616;2023-08-31T11:10:08;3.05;;;1.73;;
57627;SDS011;43451;49.060;10.616;2023-08-31T11:12:35;4.10;;;1.88;;
57627;SDS011;43451;49.060;10.616;2023-08-31T11:15:00;5.38;;;1.70;;
57627;SDS011;43451;49.060;10.616;2023-08-31T11:17:26;4.43;;;1.58;;
57627;SDS011;43451;49.060;10.616;2023-08-31T11:19:52;5.25;;;1.58;;
57627;SDS011;43451;49.060;10.616;2023-08-31T11:22:18;4.68;;;1.80;;
57627;SDS011;43451;49.060;10.616;2023-08-31T11:24:43;3.33;;;1.58;;
57627;SDS011;43451;49.060;10.616;2023-08-31T11:27:09;4.70;;;1.75;;
57627;SDS011;43451;49.060;10.616;2023-08-31T11:29:42;3.80;;;1.80;;
57627;SDS011;43451;49.060;10.616;2023-08-31T11:32:08;3.33;;;1.80;;
57627;SDS011;43451;49.060;10.616;2023-08-31T11:34:33;6.07;;;1.92;;
57627;SDS011;43451;49.060;10.616;2023-08-31T11:37:00;5.25;;;1.80;;
57627;SDS011;43451;49.060;10.616;2023-08-31T11:39:25;5.18;;;1.80;;
57627;SDS011;43451;49.060;10.616;2023-08-31T11:41:52;3.33;;;1.65;;
57627;SDS011;43451;49.060;10.616;2023-08-31T11:44:17;4.57;;;1.90;;
57627;SDS011;43451;49.060;10.616;2023-08-31T11:46:45;6.35;;;1.80;;
57627;SDS011;43451;49.060;10.616;2023-08-31T11:49:15;3.60;;;1.98;;
57627;SDS011;43451;49.060;10.616;2023-08-31T11:51:43;3.85;;;1.80;;
57627;SDS011;43451;49.060;10.616;2023-08-31T11:54:10;5.32;;;2.10;;
57627;SDS011;43451;49.060;10.616;2023-08-31T11:56:43;6.68;;;1.83;;
57627;SDS011;43451;49.060;10.616;2023-08-31T11:59:11;3.88;;;2.00;;
57627;SDS011;43451;49.060;10.616;2023-08-31T12:01:40;3.38;;;1.80;;
57627;SDS011;43451;49.060;10.616;2023-08-31T12:04:14;3.40;;;1.98;;
57627;SDS011;43451;49.060;10.616;2023-08-31T12:06:41;3.58;;;1.55;;
57627;SDS011;43451;49.060;10.616;2023-08-31T12:09:10;5.20;;;2.00;;
57627;SDS011;43451;49.060;10.616;2023-08-31T12:11:36;3.13;;;1.77;;
57627;SDS011;43451;49.060;10.616;2023-08-31T12:14:02;3.25;;;1.60;;
57627;SDS011;43451;49.060;10.616;2023-08-31T12:16:34;3.58;;;1.63;;
57627;SDS011;43451;49.060;10.616;2023-08-31T12:19:01;5.70;;;1.90;;
57627;SDS011;43451;49.060;10.616;2023-08-31T12:21:29;3.30;;;1.70;;
57627;SDS011;43451;49.060;10.616;2023-08-31T12:24:01;3.33;;;1.80;;
57627;SDS011;43451;49.060;10.616;2023-08-31T12:26:28;4.07;;;1.88;;
57627;SDS011;43451;49.060;10.616;2023-08-31T12:28:54;4.22;;;1.80;;
57627;SDS011;43451;49.060;10.616;2023-08-31T12:31:20;3.92;;;1.90;;
57627;SDS011;43451;49.060;10.616;2023-08-31T12:33:45;3.72;;;2.00;;
57627;SDS011;43451;49.060;10.616;2023-08-31T12:36:11;4.85;;;1.80;;
57627;SDS011;43451;49.060;10.616;2023-08-31T12:38:37;2.70;;;1.83;;
57627;SDS011;43451;49.060;10.616;2023-08-31T12:41:02;2.92;;;1.55;;
57627;SDS011;43451;49.060;10.616;2023-08-31T12:43:28;3.47;;;1.70;;
57627;SDS011;43451;49.060;10.616;2023-08-31T12:45:54;3.58;;;1.65;;
57627;SDS011;43451;49.060;10.616;2023-08-31T12:48:22;3.60;;;1.70;;
57627;SDS011;43451;49.060;10.616;2023-08-31T12:53:14;3.90;;;1.63;;
57627;SDS011;43451;49.060;10.616;2023-08-31T12:55:40;2.40;;;1.55;;
57627;SDS011;43451;49.060;10.616;2023-08-31T12:58:05;3.88;;;1.83;;
57627;SDS011;43451;49.060;10.616;2023-08-31T13:00:31;5.63;;;1.80;;
57627;SDS011;43451;49.060;10.616;2023-08-31T13:02:57;3.63;;;1.50;;
57627;SDS011;43451;49.060;10.616;2023-08-31T13:05:22;3.63;;;1.67;;
57627;SDS011;43451;49.060;10.616;2023-08-31T13:07:48;5.35;;;1.70;;
57627;SDS011;43451;49.060;10.616;2023-08-31T13:10:13;4.13;;;1.85;;
57627;SDS011;43451;49.060;10.616;2023-08-31T13:12:39;2.95;;;1.83;;
57627;SDS011;43451;49.060;10.616;2023-08-31T13:15:05;5.32;;;1.55;;
57627;SDS011;43451;49.060;10.616;2023-08-31T13:17:33;4.20;;;1.80;;
57627;SDS011;43451;49.060;10.616;2023-08-31T13:19:58;3.47;;;1.50;;
57627;SDS011;43451;49.060;10.616;2023-08-31T13:22:24;3.45;;;1.70;;
57627;SDS011;43451;49.060;10.616;2023-08-31T13:24:51;3.42;;;1.90;;
57627;SDS011;43451;49.060;10.616;2023-08-31T13:27:17;3.92;;;1.60;;
57627;SDS011;43451;49.060;10.616;2023-08-31T13:29:43;2.47;;;1.50;;
57627;SDS011;43451;49.060;10.616;2023-08-31T13:32:09;3.55;;;1.63;;
57627;SDS011;43451;49.060;10.616;2023-08-31T13:34:35;6.35;;;1.75;;
57627;SDS011;43451;49.060;10.616;2023-08-31T13:37:04;3.30;;;1.75;;
57627;SDS011;43451;49.060;10.616;2023-08-31T13:39:30;3.03;;;1.77;;
57627;SDS011;43451;49.060;10.616;2023-08-31T13:41:56;3.20;;;1.58;;
57627;SDS011;43451;49.060;10.616;2023-08-31T13:44:22;6.88;;;1.80;;
57627;SDS011;43451;49.060;10.616;2023-08-31T13:46:48;5.20;;;2.10;;
57627;SDS011;43451;49.060;10.616;2023-08-31T13:49:14;4.13;;;1.60;;
57627;SDS011;43451;49.060;10.616;2023-08-31T13:51:40;3.20;;;1.85;;
57627;SDS011;43451;49.060;10.616;2023-08-31T13:54:06;6.00;;;1.80;;
57627;SDS011;43451;49.060;10.616;2023-08-31T13:56:32;3.92;;;1.90;;
57627;SDS011;43451;49.060;10.616;2023-08-31T13:58:58;4.78;;;1.80;;
57627;SDS011;43451;49.060;10.616;2023-08-31T14:01:25;3.67;;;1.85;;
57627;SDS011;43451;49.060;10.616;2023-08-31T14:03:51;4.13;;;1.88;;
57627;SDS011;43451;49.060;10.616;2023-08-31T14:06:16;6.88;;;2.03;;
57627;SDS011;43451;49.060;10.616;2023-08-31T14:08:42;4.40;;;1.75;;
57627;SDS011;43451;49.060;10.616;2023-08-31T14:11:07;4.38;;;1.95;;
57627;SDS011;43451;49.060;10.616;2023-08-31T14:13:33;3.75;;;1.90;;
57627;SDS011;43451;49.060;10.616;2023-08-31T14:15:59;3.47;;;1.85;;
57627;SDS011;43451;49.060;10.616;2023-08-31T14:18:28;5.10;;;1.80;;
57627;SDS011;43451;49.060;10.616;2023-08-31T14:20:56;4.80;;;1.90;;
57627;SDS011;43451;49.060;10.616;2023-08-31T14:23:23;4.60;;;1.98;;
57627;SDS011;43451;49.060;10.616;2023-08-31T14:25:49;4.70;;;1.73;;
57627;SDS011;43451;49.060;10.616;2023-08-31T14:28:14;4.90;;;1.83;;
57627;SDS011;43451;49.060;10.616;2023-08-31T14:30:40;4.00;;;1.70;;
57627;SDS011;43451;49.060;10.616;2023-08-31T14:33:05;5.50;;;1.80;;
57627;SDS011;43451;49.060;10.616;2023-08-31T14:35:31;5.68;;;1.95;;
57627;SDS011;43451;49.060;10.616;2023-08-31T14:37:57;5.35;;;1.77;;
57627;SDS011;43451;49.060;10.616;2023-08-31T14:40:25;4.97;;;1.92;;
57627;SDS011;43451;49.060;10.616;2023-08-31T14:42:51;3.67;;;2.00;;
57627;SDS011;43451;49.060;10.616;2023-08-31T14:45:16;4.47;;;1.83;;
57627;SDS011;43451;49.060;10.616;2023-08-31T14:47:42;4.95;;;1.80;;
57627;SDS011;43451;49.060;10.616;2023-08-31T14:50:08;3.78;;;2.00;;